Time;durP1;ratioP1;P1;durP2;ratioP2;P2;SDS_P1;SDS_P2;PMS_P1;PMS_P2;Temp;Humidity;BMP_temperature;BMP_pressure;BME280_temperature;BME280_humidity;BME280_pressure;Samples;Min_cycle;Max_cycle;Signal;HPM_P1;HPM_P2
2022/11/30 00:00:53;;;;;;;52.47;24.58;;;6.20;99.90;;;;;;5049753;28;20542;-65
2022/11/30 00:03:19;;;;;;;55.42;24.88;;;6.20;99.90;;;;;;5066643;28;20040;-65
2022/11/30 00:05:44;;;;;;;49.65;23.63;;;6.20;99.90;;;;;;5015795;28;20048;-65
2022/11/30 00:08:10;;;;;;;54.90;26.02;;;6.20;99.90;;;;;;5048506;28;20080;-65
2022/11/30 00:10:39;;;;;;;51.85;24.35;;;6.20;99.90;;;;;;5065952;28;20476;-65
2022/11/30 00:13:06;;;;;;;55.85;26.05;;;6.20;99.90;;;;;;5067871;28;20083;-65
2022/11/30 00:15:32;;;;;;;57.67;25.88;;;6.10;99.90;;;;;;5047883;28;20155;-65
2022/11/30 00:17:58;;;;;;;58.08;26.17;;;6.10;99.90;;;;;;5067643;28;20044;-65
2022/11/30 00:20:24;;;;;;;55.47;26.42;;;6.10;99.90;;;;;;5066057;28;20052;-65
2022/11/30 00:22:50;;;;;;;52.55;25.50;;;6.10;99.90;;;;;;5067079;28;20083;-65
2022/11/30 00:25:16;;;;;;;52.35;26.23;;;6.10;99.90;;;;;;5048615;28;20502;-65
2022/11/30 00:27:42;;;;;;;49.70;24.45;;;6.10;99.90;;;;;;5048877;28;20486;-65
2022/11/30 00:30:08;;;;;;;57.15;26.38;;;6.10;99.90;;;;;;5064906;28;20052;-65
2022/11/30 00:32:34;;;;;;;71.00;29.02;;;6.10;99.90;;;;;;5064826;28;20071;-65
2022/11/30 00:35:00;;;;;;;59.13;26.80;;;6.10;99.90;;;;;;5048667;28;20055;-65
2022/11/30 00:37:26;;;;;;;60.10;26.70;;;6.10;99.90;;;;;;5047455;28;20056;-65
2022/11/30 00:39:51;;;;;;;53.45;25.88;;;6.10;99.90;;;;;;5048843;28;20049;-65
2022/11/30 00:42:17;;;;;;;50.15;26.45;;;6.10;99.90;;;;;;5047040;28;20044;-65
2022/11/30 00:44:43;;;;;;;60.10;27.08;;;6.10;99.90;;;;;;5064550;28;20048;-65
2022/11/30 00:47:08;;;;;;;53.55;26.40;;;6.00;99.90;;;;;;5066745;28;20538;-65
2022/11/30 00:49:34;;;;;;;55.92;27.45;;;6.10;99.90;;;;;;5065939;28;20664;-65
2022/11/30 00:52:00;;;;;;;62.90;27.70;;;6.10;99.90;;;;;;5067188;28;20098;-65
2022/11/30 00:54:27;;;;;;;61.00;28.35;;;6.10;99.90;;;;;;5046869;28;20172;-65
2022/11/30 00:56:52;;;;;;;48.97;23.65;;;6.10;99.90;;;;;;5066905;28;20539;-65
2022/11/30 00:59:18;;;;;;;58.05;26.40;;;6.10;99.90;;;;;;5065925;28;20080;-65
2022/11/30 01:01:44;;;;;;;56.22;26.10;;;6.00;99.90;;;;;;5047880;28;20037;-65
2022/11/30 01:04:09;;;;;;;55.10;26.92;;;6.00;99.90;;;;;;5059173;28;20041;-65
2022/11/30 01:06:36;;;;;;;51.42;24.17;;;6.00;99.90;;;;;;5067603;28;20500;-65
2022/11/30 01:09:03;;;;;;;52.83;24.90;;;6.00;99.90;;;;;;5036411;28;20045;-65
2022/11/30 01:11:30;;;;;;;52.97;24.85;;;6.00;99.90;;;;;;5051805;28;20036;-65
2022/11/30 01:13:58;;;;;;;50.45;25.02;;;6.00;99.90;;;;;;5052635;28;20456;-65
2022/11/30 01:16:27;;;;;;;48.30;23.88;;;6.00;99.90;;;;;;5069318;28;20048;-65
2022/11/30 01:18:53;;;;;;;51.40;25.80;;;6.00;99.90;;;;;;5052879;28;20044;-65
2022/11/30 01:21:22;;;;;;;52.08;25.27;;;6.00;99.90;;;;;;5068790;28;20052;-65
2022/11/30 01:23:49;;;;;;;58.95;26.63;;;6.00;99.90;;;;;;5068973;28;20049;-65
2022/11/30 01:26:16;;;;;;;60.08;27.10;;;6.00;99.90;;;;;;5069025;28;20071;-65
2022/11/30 01:28:43;;;;;;;51.90;26.05;;;6.00;99.90;;;;;;5067951;28;20516;-65
2022/11/30 01:31:12;;;;;;;56.20;26.00;;;6.00;99.90;;;;;;5069129;28;20036;-65
2022/11/30 01:33:39;;;;;;;54.13;26.13;;;6.00;99.90;;;;;;5068193;28;20037;-65
2022/11/30 01:36:11;;;;;;;59.70;26.17;;;6.00;99.90;;;;;;5068197;28;20491;-65
2022/11/30 01:38:43;;;;;;;54.60;26.02;;;6.00;99.90;;;;;;5069038;28;20080;-65
2022/11/30 01:41:11;;;;;;;57.75;25.52;;;6.00;99.90;;;;;;5067754;28;20057;-65
2022/11/30 01:43:42;;;;;;;52.38;24.42;;;6.00;99.90;;;;;;5051716;28;20429;-65
2022/11/30 01:46:17;;;;;;;53.60;25.60;;;6.00;99.90;;;;;;5067213;28;20045;-65
2022/11/30 01:48:44;;;;;;;61.50;25.13;;;6.00;99.90;;;;;;5069459;28;20048;-65
2022/11/30 01:51:11;;;;;;;66.53;26.98;;;6.00;99.90;;;;;;5049759;28;20044;-65
2022/11/30 01:53:36;;;;;;;54.55;25.80;;;6.00;99.90;;;;;;5050139;28;20380;-65
2022/11/30 01:56:02;;;;;;;65.10;28.40;;;6.00;99.90;;;;;;5067998;28;20094;-66
2022/11/30 01:58:29;;;;;;;66.88;28.58;;;6.00;99.90;;;;;;5049551;28;20079;-65
2022/11/30 02:00:55;;;;;;;62.13;27.83;;;6.00;99.90;;;;;;5051281;28;20047;-65
2022/11/30 02:03:42;;;;;;;61.97;27.40;;;6.00;99.90;;;;;;5049198;28;20048;-65
2022/11/30 02:06:09;;;;;;;59.42;25.38;;;6.00;99.90;;;;;;5068227;28;20119;-65
2022/11/30 02:08:36;;;;;;;59.13;26.60;;;6.00;99.90;;;;;;5068370;28;20091;-65
2022/11/30 02:11:04;;;;;;;61.30;28.08;;;6.00;99.90;;;;;;5033058;28;20049;-65
2022/11/30 02:14:00;;;;;;;62.90;27.65;;;6.00;99.90;;;;;;5050651;28;20052;-65
2022/11/30 02:17:02;;;;;;;54.95;24.98;;;6.00;99.90;;;;;;5065210;28;20041;-65
2022/11/30 02:20:01;;;;;;;53.65;25.73;;;5.90;99.90;;;;;;5049347;28;20044;-65
2022/11/30 02:22:54;;;;;;;56.33;25.92;;;5.90;99.90;;;;;;5047062;28;20502;-65
2022/11/30 02:25:45;;;;;;;60.05;25.80;;;5.90;99.90;;;;;;5056122;28;20080;-65
2022/11/30 02:28:30;;;;;;;59.58;25.08;;;5.90;99.90;;;;;;5067294;28;20048;-65
2022/11/30 02:30:58;;;;;;;63.15;27.00;;;5.90;99.90;;;;;;5068856;28;20491;-65
2022/11/30 02:33:28;;;;;;;57.85;26.60;;;5.90;99.90;;;;;;5066477;28;20056;-65
2022/11/30 02:35:54;;;;;;;;;;;5.90;99.90;;;;;;5034280;28;20041;-65
2022/11/30 02:38:21;;;;;;;61.13;25.95;;;5.90;99.90;;;;;;5015436;28;19930;-65
2022/11/30 02:40:47;;;;;;;60.72;26.10;;;5.90;99.90;;;;;;5041952;28;20045;-65
2022/11/30 02:43:15;;;;;;;71.43;28.70;;;5.90;99.90;;;;;;5066862;28;20052;-65
2022/11/30 02:45:47;;;;;;;68.13;26.70;;;5.90;99.90;;;;;;5033972;28;20048;-65
2022/11/30 02:48:19;;;;;;;57.97;25.20;;;5.90;99.90;;;;;;5049645;28;20045;-65
2022/11/30 02:50:49;;;;;;;59.25;26.70;;;5.90;99.90;;;;;;5066565;28;20048;-65
2022/11/30 02:53:15;;;;;;;;;;;5.90;99.90;;;;;;5068167;28;20433;-65
2022/11/30 02:55:41;;;;;;;63.80;27.05;;;5.80;99.90;;;;;;5066396;28;19928;-65
2022/11/30 02:58:07;;;;;;;57.97;25.30;;;5.80;99.90;;;;;;5067517;28;20041;-65
2022/11/30 03:00:33;;;;;;;70.20;28.48;;;5.80;99.90;;;;;;5067060;28;20048;-65
2022/11/30 03:02:59;;;;;;;66.28;28.25;;;5.80;99.90;;;;;;5066656;28;20053;-65
2022/11/30 03:05:24;;;;;;;73.90;28.30;;;5.80;99.90;;;;;;5067406;28;20113;-65
2022/11/30 03:07:51;;;;;;;68.15;27.83;;;5.80;99.90;;;;;;5065643;28;20040;-65
2022/11/30 03:10:18;;;;;;;77.78;31.10;;;5.80;99.90;;;;;;5067350;28;20560;-65
2022/11/30 03:12:43;;;;;;;67.38;28.25;;;5.80;99.90;;;;;;5065894;28;20371;-65
2022/11/30 03:15:10;;;;;;;68.20;27.65;;;5.80;99.90;;;;;;5067869;28;20136;-65
2022/11/30 03:17:35;;;;;;;65.40;27.33;;;5.80;99.90;;;;;;5065738;28;20048;-65
2022/11/30 03:20:01;;;;;;;79.20;28.20;;;5.90;99.90;;;;;;5067074;28;20127;-65
2022/11/30 03:22:27;;;;;;;63.25;26.30;;;5.90;99.90;;;;;;5066787;28;20060;-65
2022/11/30 03:24:52;;;;;;;69.68;29.02;;;5.90;99.90;;;;;;5066036;28;20041;-65
2022/11/30 03:27:18;;;;;;;67.78;25.92;;;5.90;99.90;;;;;;5066638;28;20088;-65
2022/11/30 03:29:44;;;;;;;70.63;27.15;;;5.90;99.90;;;;;;5065905;28;20082;-65
2022/11/30 03:32:10;;;;;;;65.40;27.25;;;5.80;99.90;;;;;;5049024;28;20122;-65
2022/11/30 03:34:35;;;;;;;76.05;28.13;;;5.80;99.90;;;;;;5065356;28;20118;-65
2022/11/30 03:37:01;;;;;;;70.70;28.60;;;5.80;99.90;;;;;;5066974;28;20087;-65
2022/11/30 03:39:27;;;;;;;62.88;25.33;;;5.80;99.90;;;;;;5066198;28;20043;-65
2022/11/30 03:41:52;;;;;;;78.85;28.25;;;5.80;99.90;;;;;;5066084;28;20113;-65
2022/11/30 03:44:18;;;;;;;68.65;25.35;;;5.80;99.90;;;;;;5066622;28;20041;-65
2022/11/30 03:46:44;;;;;;;66.75;26.52;;;5.80;99.90;;;;;;5047562;28;20717;-65
2022/11/30 03:49:11;;;;;;;68.93;27.02;;;5.80;99.90;;;;;;5067572;28;20682;-65
2022/11/30 03:51:36;;;;;;;79.50;29.17;;;5.80;99.90;;;;;;5047024;28;20059;-65
2022/11/30 03:54:02;;;;;;;76.35;28.67;;;5.80;99.90;;;;;;5048894;28;20036;-65
2022/11/30 03:56:28;;;;;;;70.50;30.52;;;5.80;99.90;;;;;;5047453;28;20056;-65
2022/11/30 03:58:54;;;;;;;67.47;27.02;;;5.80;99.90;;;;;;5065892;28;20041;-65
2022/11/30 04:01:22;;;;;;;69.97;27.20;;;5.80;99.90;;;;;;5031401;28;20051;-65
2022/11/30 04:03:50;;;;;;;72.13;27.85;;;5.80;99.90;;;;;;5065422;28;20064;-65
2022/11/30 04:06:17;;;;;;;73.00;28.45;;;5.80;99.90;;;;;;5066365;28;20041;-65
2022/11/30 04:08:43;;;;;;;64.65;26.20;;;5.80;99.90;;;;;;5046485;28;20057;-65
2022/11/30 04:11:10;;;;;;;61.13;24.42;;;5.80;99.90;;;;;;5032331;28;20051;-65
2022/11/30 04:13:37;;;;;;;62.30;24.48;;;5.80;99.90;;;;;;5065161;28;20049;-65
2022/11/30 04:16:04;;;;;;;61.03;24.48;;;5.80;99.90;;;;;;5065561;28;20047;-65
2022/11/30 04:18:31;;;;;;;59.58;24.63;;;5.70;99.90;;;;;;5065910;28;20044;-65
2022/11/30 04:20:58;;;;;;;58.85;22.98;;;5.60;99.90;;;;;;5065095;28;20094;-65
2022/11/30 04:23:25;;;;;;;53.92;23.13;;;5.70;99.90;;;;;;5031874;28;20396;-65
2022/11/30 04:25:51;;;;;;;55.63;22.13;;;5.70;99.90;;;;;;5064281;28;20048;-65
2022/11/30 04:28:18;;;;;;;54.10;21.70;;;5.70;99.90;;;;;;5065822;28;20092;-65
2022/11/30 04:30:44;;;;;;;53.08;21.40;;;5.70;99.90;;;;;;5064893;28;20063;-65
2022/11/30 04:33:12;;;;;;;47.80;21.40;;;5.70;99.90;;;;;;5047738;28;20037;-65
2022/11/30 04:35:56;;;;;;;42.13;18.77;;;5.70;99.90;;;;;;5030734;28;20045;-65
2022/11/30 04:38:23;;;;;;;47.25;20.27;;;5.70;99.90;;;;;;5064409;28;20036;-65
2022/11/30 04:40:49;;;;;;;43.22;19.20;;;5.70;99.90;;;;;;5065948;28;20490;-65
2022/11/30 04:43:15;;;;;;;41.30;19.10;;;5.70;99.90;;;;;;5064695;28;20138;-65
2022/11/30 04:45:43;;;;;;;37.95;18.95;;;5.70;99.90;;;;;;5042954;28;20635;-65
2022/11/30 04:48:10;;;;;;;36.50;18.55;;;5.70;99.90;;;;;;5064924;28;20513;-65
2022/11/30 04:50:36;;;;;;;41.08;19.13;;;5.70;99.90;;;;;;5065459;28;20453;-65
2022/11/30 04:53:02;;;;;;;38.33;17.40;;;5.70;99.90;;;;;;5065981;28;20075;-65
2022/11/30 04:55:28;;;;;;;38.85;18.27;;;5.70;99.90;;;;;;5064703;28;20478;-65
2022/11/30 04:57:53;;;;;;;34.53;16.58;;;5.70;99.90;;;;;;5065655;28;20052;-65
2022/11/30 05:00:20;;;;;;;31.48;16.27;;;5.70;99.90;;;;;;5046765;28;20500;-65
2022/11/30 05:02:46;;;;;;;33.78;15.68;;;5.70;99.90;;;;;;5065916;28;20052;-65
2022/11/30 05:05:12;;;;;;;32.45;16.88;;;5.70;99.90;;;;;;5046585;28;20050;-65
2022/11/30 05:07:39;;;;;;;29.60;15.77;;;5.70;99.90;;;;;;5065182;28;20040;-65
2022/11/30 05:10:06;;;;;;;32.25;15.40;;;5.60;99.90;;;;;;5065427;28;20080;-65
2022/11/30 05:12:32;;;;;;;28.17;14.73;;;5.70;99.90;;;;;;5047085;28;20044;-65
2022/11/30 05:14:58;;;;;;;26.73;13.98;;;5.60;99.90;;;;;;5065783;28;20094;-66
2022/11/30 05:17:23;;;;;;;28.30;13.88;;;5.60;99.90;;;;;;5064505;28;20130;-65
2022/11/30 05:19:49;;;;;;;20.17;13.30;;;5.60;99.90;;;;;;5047120;28;20036;-65
2022/11/30 05:22:18;;;;;;;24.90;13.10;;;5.60;99.90;;;;;;5046939;28;20056;-65
2022/11/30 05:24:44;;;;;;;23.35;13.10;;;5.60;99.90;;;;;;5065303;28;20100;-65
2022/11/30 05:27:10;;;;;;;24.80;13.85;;;5.60;99.90;;;;;;5046859;28;20055;-65
2022/11/30 05:29:36;;;;;;;21.52;12.45;;;5.60;99.90;;;;;;5046685;28;20044;-65
2022/11/30 05:32:02;;;;;;;21.65;12.63;;;5.60;99.90;;;;;;5065790;28;20098;-65
2022/11/30 05:34:28;;;;;;;23.60;11.70;;;5.60;99.90;;;;;;5052150;28;20052;-65
2022/11/30 05:36:54;;;;;;;23.13;13.40;;;5.60;99.90;;;;;;5065719;28;20450;-65
2022/11/30 05:39:21;;;;;;;20.92;12.95;;;5.60;99.90;;;;;;5064291;28;20055;-65
2022/11/30 05:41:47;;;;;;;21.55;12.35;;;5.60;99.90;;;;;;5047316;28;20045;-65
2022/11/30 05:44:13;;;;;;;22.35;13.40;;;5.60;99.90;;;;;;5046953;28;20060;-65
2022/11/30 05:46:39;;;;;;;18.90;12.45;;;5.60;99.90;;;;;;5046784;28;20174;-65
2022/11/30 05:49:05;;;;;;;20.83;12.23;;;5.60;99.90;;;;;;5065506;28;20090;-65
2022/11/30 05:51:31;;;;;;;18.45;11.32;;;5.60;99.90;;;;;;5032139;28;20102;-65
2022/11/30 05:53:58;;;;;;;22.73;13.50;;;5.60;99.90;;;;;;5068608;28;20040;-65
2022/11/30 05:56:24;;;;;;;20.95;13.38;;;5.50;99.90;;;;;;5068024;28;20414;-65
2022/11/30 05:58:49;;;;;;;21.48;12.77;;;5.60;99.90;;;;;;5068862;28;20044;-65
2022/11/30 06:01:21;;;;;;;19.92;13.43;;;5.50;99.90;;;;;;5049473;28;20040;-65
2022/11/30 06:03:47;;;;;;;20.27;12.32;;;5.50;99.90;;;;;;5049563;28;20044;-65
2022/11/30 06:06:13;;;;;;;21.92;12.93;;;5.50;99.90;;;;;;5068588;28;20098;-65
2022/11/30 06:08:39;;;;;;;22.95;13.05;;;5.60;99.90;;;;;;5067419;28;20040;-65
2022/11/30 06:11:04;;;;;;;23.17;13.43;;;5.50;99.90;;;;;;5067931;28;20490;-65
2022/11/30 06:13:31;;;;;;;19.15;12.27;;;5.50;99.90;;;;;;5067355;28;20087;-65
2022/11/30 06:16:04;;;;;;;24.27;12.73;;;5.50;99.90;;;;;;5068261;28;20040;-65
2022/11/30 06:18:31;;;;;;;22.45;14.23;;;5.50;99.90;;;;;;5067506;28;20482;-65
2022/11/30 06:21:05;;;;;;;23.38;13.73;;;5.50;99.90;;;;;;5040202;28;20068;-65
2022/11/30 06:23:32;;;;;;;20.98;13.30;;;5.50;99.90;;;;;;5028353;28;20049;-65
2022/11/30 06:25:57;;;;;;;23.02;13.40;;;5.50;99.90;;;;;;5025936;28;20052;-65
2022/11/30 06:28:23;;;;;;;22.27;13.15;;;5.50;99.90;;;;;;5029016;28;20041;-65
2022/11/30 06:30:50;;;;;;;24.48;15.10;;;5.50;99.90;;;;;;5025452;28;20463;-65
2022/11/30 06:33:16;;;;;;;26.52;14.27;;;5.50;99.90;;;;;;5010151;28;20059;-65
2022/11/30 06:35:46;;;;;;;26.23;14.93;;;5.50;99.90;;;;;;5025475;28;20125;-65
2022/11/30 06:38:12;;;;;;;24.55;14.80;;;5.50;99.90;;;;;;5026866;28;20056;-65
2022/11/30 06:40:38;;;;;;;24.75;14.38;;;5.50;99.90;;;;;;5027832;28;20444;-65
2022/11/30 06:43:04;;;;;;;26.98;15.23;;;5.60;99.90;;;;;;5025575;28;20069;-65
2022/11/30 06:45:30;;;;;;;24.80;14.73;;;5.50;99.90;;;;;;5028554;28;20081;-65
2022/11/30 06:47:56;;;;;;;29.27;15.70;;;5.50;99.90;;;;;;5025369;28;20557;-65
2022/11/30 06:50:23;;;;;;;26.10;14.65;;;5.50;99.90;;;;;;5028352;28;20041;-65
2022/11/30 06:52:52;;;;;;;31.00;16.30;;;5.50;99.90;;;;;;5026507;28;20099;-65
2022/11/30 06:55:18;;;;;;;32.95;17.70;;;5.50;99.90;;;;;;5026637;28;20094;-65
2022/11/30 06:57:45;;;;;;;29.08;16.67;;;5.50;99.90;;;;;;5025732;28;20470;-65
2022/11/30 07:00:11;;;;;;;25.35;16.08;;;5.50;99.90;;;;;;5026022;28;20491;-65
2022/11/30 07:02:37;;;;;;;27.73;16.48;;;5.50;99.90;;;;;;5024919;28;20108;-65
2022/11/30 07:05:03;;;;;;;28.75;16.85;;;5.60;99.90;;;;;;5024820;28;20107;-65
2022/11/30 07:07:29;;;;;;;31.65;18.13;;;5.60;99.90;;;;;;5028068;28;20041;-65
2022/11/30 07:09:56;;;;;;;33.25;17.38;;;5.60;99.90;;;;;;5026554;28;20045;-65
2022/11/30 07:12:22;;;;;;;37.28;18.13;;;5.60;99.90;;;;;;5025780;28;20480;-65
2022/11/30 07:14:51;;;;;;;33.80;17.00;;;5.60;99.90;;;;;;5025997;28;20056;-65
2022/11/30 07:17:17;;;;;;;33.22;18.38;;;5.60;99.90;;;;;;5027024;28;20428;-65
2022/11/30 07:19:43;;;;;;;38.13;18.90;;;5.60;99.90;;;;;;5026573;28;20041;-65
2022/11/30 07:22:09;;;;;;;37.25;18.35;;;5.60;99.90;;;;;;5058251;28;20718;-65
2022/11/30 07:27:19;;;;;;;30.77;17.67;;;5.60;99.90;;;;;;5057638;28;20052;-65
2022/11/30 07:29:47;;;;;;;35.83;19.40;;;5.60;99.90;;;;;;5032864;28;20501;-65
2022/11/30 07:32:17;;;;;;;39.15;19.38;;;5.60;99.90;;;;;;5064619;28;20213;-65
2022/11/30 07:34:42;;;;;;;39.70;20.02;;;5.60;99.90;;;;;;5066529;28;20631;-65
2022/11/30 07:37:08;;;;;;;37.05;19.88;;;5.60;99.90;;;;;;5066475;28;20132;-65
2022/11/30 07:39:34;;;;;;;40.47;20.38;;;5.60;99.90;;;;;;5048115;28;20082;-65
2022/11/30 07:42:00;;;;;;;36.00;19.58;;;5.60;99.90;;;;;;5055860;28;20773;-65
2022/11/30 07:44:26;;;;;;;38.40;19.42;;;5.60;99.90;;;;;;5041030;28;20049;-65
2022/11/30 07:46:52;;;;;;;41.60;19.63;;;5.60;99.90;;;;;;5066332;28;20037;-65
2022/11/30 07:49:17;;;;;;;44.08;21.02;;;5.60;99.90;;;;;;5066112;28;20070;-65
2022/11/30 07:51:44;;;;;;;42.30;19.55;;;5.60;99.90;;;;;;5048537;28;20052;-65
2022/11/30 07:54:10;;;;;;;39.75;19.17;;;5.60;99.90;;;;;;5053807;28;20190;-65
2022/11/30 07:56:36;;;;;;;42.13;21.67;;;5.60;99.90;;;;;;5047640;28;20044;-65
2022/11/30 07:59:02;;;;;;;43.10;20.35;;;5.60;99.90;;;;;;5066039;28;20035;-65
2022/11/30 08:01:30;;;;;;;42.92;20.95;;;5.60;99.90;;;;;;5064604;28;20178;-65
2022/11/30 08:03:56;;;;;;;46.35;22.08;;;5.60;99.90;;;;;;5047426;28;20036;-65
2022/11/30 08:06:25;;;;;;;49.95;21.77;;;5.60;99.90;;;;;;5055455;28;20048;-65
2022/11/30 08:08:53;;;;;;;47.90;22.52;;;5.60;99.90;;;;;;5066078;28;20382;-65
2022/11/30 08:11:27;;;;;;;47.22;22.20;;;5.60;99.90;;;;;;5052466;28;20063;-65
2022/11/30 08:13:55;;;;;;;51.45;24.58;;;5.60;99.90;;;;;;5047453;28;20095;-65
2022/11/30 08:16:24;;;;;;;51.85;22.67;;;5.60;99.90;;;;;;5065263;28;20503;-65
2022/11/30 08:18:50;;;;;;;52.05;24.60;;;5.60;99.90;;;;;;5065244;28;20132;-65
2022/11/30 08:21:18;;;;;;;49.35;23.38;;;5.60;99.90;;;;;;5065909;28;20201;-65
2022/11/30 08:23:47;;;;;;;46.90;22.50;;;5.60;99.90;;;;;;5065660;28;20095;-65
2022/11/30 08:26:16;;;;;;;55.45;24.90;;;5.60;99.90;;;;;;5065339;28;20080;-65
2022/11/30 08:28:43;;;;;;;56.67;23.70;;;5.50;99.90;;;;;;5066111;28;20051;-65
2022/11/30 08:31:12;;;;;;;54.65;24.50;;;5.60;99.90;;;;;;5030434;28;20419;-65
2022/11/30 08:33:38;;;;;;;54.22;24.30;;;5.60;99.90;;;;;;5047356;28;20047;-65
2022/11/30 08:36:23;;;;;;;55.92;22.65;;;5.60;99.90;;;;;;5044378;28;20131;-65
2022/11/30 08:38:48;;;;;;;55.13;24.88;;;5.60;99.90;;;;;;5047329;28;20048;-65
2022/11/30 08:41:18;;;;;;;57.85;25.42;;;5.60;99.90;;;;;;5065220;28;20048;-65
2022/11/30 08:43:44;;;;;;;57.05;26.45;;;5.60;99.90;;;;;;5047642;28;20052;-65
2022/11/30 08:46:13;;;;;;;57.10;24.15;;;5.60;99.90;;;;;;5063194;28;21269;-65
2022/11/30 08:48:38;;;;;;;55.05;25.17;;;5.60;99.90;;;;;;5063681;28;20094;-65
2022/11/30 08:51:10;;;;;;;51.25;22.77;;;5.60;99.90;;;;;;5065314;28;20119;-65
2022/11/30 08:53:36;;;;;;;58.10;24.75;;;5.60;99.90;;;;;;5046191;28;20483;-65
2022/11/30 08:56:05;;;;;;;48.58;24.25;;;5.60;99.90;;;;;;5064641;28;20142;-65
2022/11/30 08:58:36;;;;;;;53.53;24.70;;;5.60;99.90;;;;;;5064916;28;20044;-65
2022/11/30 09:01:20;;;;;;;52.10;24.73;;;5.60;99.90;;;;;;5065281;28;20040;-65
2022/11/30 09:03:47;;;;;;;60.25;26.65;;;5.60;99.90;;;;;;5065462;28;20045;-65
2022/11/30 09:06:26;;;;;;;59.80;26.73;;;5.60;99.90;;;;;;5062979;28;20084;-65
2022/11/30 09:08:54;;;;;;;63.45;28.65;;;5.60;99.90;;;;;;5060457;28;20048;-65
2022/11/30 09:11:32;;;;;;;60.47;27.73;;;5.60;99.90;;;;;;5045851;28;20052;-65
2022/11/30 09:14:00;;;;;;;69.47;28.88;;;5.60;99.90;;;;;;5064586;28;20082;-65
2022/11/30 09:16:27;;;;;;;68.65;29.35;;;5.60;99.90;;;;;;5048284;28;20074;-65
2022/11/30 09:18:53;;;;;;;75.63;30.73;;;5.70;99.90;;;;;;5064545;28;20127;-65
2022/11/30 09:21:21;;;;;;;68.32;29.85;;;5.60;99.90;;;;;;5065335;28;20127;-65
2022/11/30 09:23:48;;;;;;;78.47;31.13;;;5.70;99.90;;;;;;5029900;28;20052;-65
2022/11/30 09:26:16;;;;;;;80.25;31.45;;;5.70;99.90;;;;;;5067370;28;20052;-65
2022/11/30 09:28:43;;;;;;;79.97;33.55;;;5.70;99.90;;;;;;5050282;28;20052;-65
2022/11/30 09:31:11;;;;;;;78.22;31.60;;;5.70;99.90;;;;;;5067952;28;20048;-65
2022/11/30 09:33:38;;;;;;;92.05;35.67;;;5.60;99.90;;;;;;5068485;28;20479;-65
2022/11/30 09:36:08;;;;;;;95.30;35.15;;;5.60;99.90;;;;;;5050472;28;20056;-65
2022/11/30 09:38:34;;;;;;;92.25;34.38;;;5.60;99.90;;;;;;5069247;28;20521;-65
2022/11/30 09:41:06;;;;;;;90.07;35.42;;;5.60;99.90;;;;;;5064695;28;20048;-65
2022/11/30 09:43:32;;;;;;;83.95;36.25;;;5.60;99.90;;;;;;5048830;28;20846;-65
2022/11/30 09:46:02;;;;;;;92.50;35.90;;;5.60;99.90;;;;;;5068193;28;20087;-65
2022/11/30 09:48:36;;;;;;;76.03;33.20;;;5.70;99.90;;;;;;5068440;28;20064;-65
2022/11/30 09:51:10;;;;;;;78.93;33.53;;;5.70;99.90;;;;;;5049948;28;20040;-65
2022/11/30 09:53:42;;;;;;;78.60;31.20;;;5.80;99.90;;;;;;5067677;28;20071;-65
2022/11/30 09:56:30;;;;;;;72.20;31.00;;;5.80;99.90;;;;;;5048399;28;20127;-65
2022/11/30 09:59:17;;;;;;;70.57;32.38;;;5.80;99.90;;;;;;5067078;28;20044;-65
2022/11/30 10:01:46;;;;;;;77.43;32.88;;;5.80;99.90;;;;;;5047890;28;20056;-65
2022/11/30 10:04:25;;;;;;;80.55;34.20;;;5.80;99.90;;;;;;5049795;28;20128;-65
2022/11/30 10:07:01;;;;;;;77.60;33.70;;;5.80;99.90;;;;;;5067095;28;20044;-64
2022/11/30 10:10:03;;;;;;;73.60;33.38;;;5.80;99.90;;;;;;5047640;28;20538;-65
2022/11/30 10:12:47;;;;;;;71.53;31.50;;;5.80;99.90;;;;;;4996300;28;20050;-65
2022/11/30 10:15:26;;;;;;;64.13;29.17;;;5.90;99.90;;;;;;5064635;28;20063;-65
2022/11/30 10:18:01;;;;;;;71.25;32.03;;;5.90;99.90;;;;;;5067970;28;20033;-65
2022/11/30 10:20:39;;;;;;;57.92;28.25;;;5.90;99.90;;;;;;5066459;28;20049;-65
2022/11/30 10:23:14;;;;;;;83.30;35.63;;;5.90;99.90;;;;;;5067021;28;20060;-65
2022/11/30 10:25:43;;;;;;;80.32;35.10;;;5.90;99.90;;;;;;5067906;28;20485;-65
2022/11/30 10:28:44;;;;;;;92.70;38.10;;;5.90;99.90;;;;;;5048096;28;20709;-65
2022/11/30 10:31:19;;;;;;;105.07;40.70;;;6.00;99.90;;;;;;5067674;28;20048;-65
2022/11/30 10:33:50;;;;;;;99.95;39.63;;;5.90;99.90;;;;;;5048754;28;20517;-65
2022/11/30 10:36:16;;;;;;;89.20;36.38;;;5.90;99.90;;;;;;5048659;28;20044;-65
2022/11/30 10:38:48;;;;;;;95.43;39.40;;;5.90;99.90;;;;;;5066013;28;20409;-65
2022/11/30 10:41:19;;;;;;;87.60;37.80;;;5.80;99.90;;;;;;5066760;28;20505;-65
2022/11/30 10:44:06;;;;;;;88.07;37.20;;;5.80;99.90;;;;;;5062472;28;20049;-65
2022/11/30 10:46:38;;;;;;;80.90;34.25;;;5.80;99.90;;;;;;5062121;28;20045;-64
2022/11/30 10:49:10;;;;;;;70.00;32.30;;;5.80;99.90;;;;;;5067123;28;20059;-65
2022/11/30 10:51:39;;;;;;;72.32;31.42;;;5.80;99.90;;;;;;5049428;28;20045;-65
2022/11/30 10:54:14;;;;;;;74.40;33.65;;;5.90;99.90;;;;;;5047128;28;20052;-65
2022/11/30 10:56:40;;;;;;;86.43;34.05;;;5.80;99.90;;;;;;5067260;28;20053;-65
2022/11/30 10:59:16;;;;;;;82.28;33.75;;;5.90;99.90;;;;;;5066719;28;20052;-65
2022/11/30 11:01:42;;;;;;;79.22;34.13;;;6.00;99.90;;;;;;5048053;28;20094;-65
2022/11/30 11:04:11;;;;;;;84.18;37.90;;;6.00;99.90;;;;;;5063857;28;20383;-65
2022/11/30 11:07:07;;;;;;;80.57;33.80;;;6.00;99.90;;;;;;5059340;28;20433;-65
2022/11/30 11:09:38;;;;;;;79.00;33.72;;;6.00;99.90;;;;;;5049458;28;20052;-65
2022/11/30 11:12:15;;;;;;;71.53;32.78;;;6.00;99.90;;;;;;5066290;28;20060;-65
2022/11/30 11:14:42;;;;;;;73.38;32.75;;;5.90;99.90;;;;;;5038039;28;20080;-65
2022/11/30 11:17:16;;;;;;;81.18;33.78;;;5.90;99.90;;;;;;5041821;28;20052;-65
2022/11/30 11:19:43;;;;;;;70.53;30.48;;;5.90;99.90;;;;;;5065495;28;20078;-65
2022/11/30 11:22:21;;;;;;;76.80;33.45;;;6.00;99.90;;;;;;5049628;28;20196;-65
2022/11/30 11:24:49;;;;;;;69.90;32.67;;;6.00;99.90;;;;;;5047797;28;20059;-65
2022/11/30 11:27:33;;;;;;;73.93;32.47;;;6.00;99.90;;;;;;5067307;28;20040;-67
2022/11/30 11:30:03;;;;;;;76.70;34.05;;;6.00;99.90;;;;;;5049062;28;20052;-65
2022/11/30 11:32:29;;;;;;;83.38;34.25;;;6.00;99.90;;;;;;5047731;28;20502;-65
2022/11/30 11:34:57;;;;;;;63.13;30.45;;;6.00;99.90;;;;;;5049061;28;20056;-64
2022/11/30 11:37:29;;;;;;;70.15;32.78;;;5.90;99.90;;;;;;5047108;28;20055;-65
2022/11/30 11:40:14;;;;;;;64.45;31.15;;;5.90;99.90;;;;;;5049085;28;20054;-64
2022/11/30 11:42:52;;;;;;;71.20;32.25;;;5.90;99.90;;;;;;5065661;28;20113;-65
2022/11/30 11:45:27;;;;;;;68.55;30.63;;;5.90;99.90;;;;;;5065962;28;20548;-65
2022/11/30 11:48:03;;;;;;;71.38;31.73;;;5.90;99.90;;;;;;5066350;28;20111;-65
2022/11/30 11:50:34;;;;;;;75.18;32.15;;;5.90;99.90;;;;;;5030986;28;20131;-65
2022/11/30 11:53:23;;;;;;;61.33;30.33;;;5.90;99.90;;;;;;5048751;28;20143;-66
2022/11/30 11:56:03;;;;;;;68.68;31.05;;;5.90;99.90;;;;;;5053775;28;20095;-64
2022/11/30 11:58:39;;;;;;;63.47;30.45;;;5.90;99.90;;;;;;5046105;28;20491;-63
2022/11/30 12:01:10;;;;;;;70.75;30.08;;;5.90;99.90;;;;;;5046117;28;20494;-63
2022/11/30 12:03:59;;;;;;;65.78;29.52;;;5.90;99.90;;;;;;5063950;28;20052;-63
2022/11/30 12:06:26;;;;;;;59.72;28.77;;;5.90;99.90;;;;;;5063625;28;20041;-67
2022/11/30 12:08:59;;;;;;;64.38;31.15;;;5.90;99.90;;;;;;5065716;28;20434;-66
2022/11/30 12:11:38;;;;;;;63.05;29.23;;;5.90;99.90;;;;;;5034039;28;20053;-66
2022/11/30 12:14:11;;;;;;;57.33;28.63;;;5.90;99.90;;;;;;5066573;28;20049;-66
2022/11/30 12:16:49;;;;;;;57.38;27.83;;;5.90;99.90;;;;;;5046966;28;20059;-66
2022/11/30 12:19:18;;;;;;;60.80;29.38;;;6.00;99.90;;;;;;5046873;28;20040;-66
2022/11/30 12:22:06;;;;;;;65.93;30.58;;;6.00;99.90;;;;;;5064773;28;21051;-65
2022/11/30 12:24:54;;;;;;;62.75;30.80;;;6.00;99.90;;;;;;5046090;28;20045;-65
2022/11/30 12:27:46;;;;;;;63.33;30.30;;;6.00;99.90;;;;;;5063272;28;20048;-65
2022/11/30 12:30:30;;;;;;;70.72;32.85;;;6.00;99.90;;;;;;5063571;28;20113;-65
2022/11/30 12:33:29;;;;;;;64.10;29.48;;;6.10;99.90;;;;;;5064103;28;20049;-65
2022/11/30 12:36:24;;;;;;;64.80;32.50;;;6.00;99.90;;;;;;5040037;28;20048;-65
2022/11/30 12:38:55;;;;;;;62.70;30.00;;;6.00;99.90;;;;;;5048335;28;20040;-64
2022/11/30 12:41:36;;;;;;;61.97;30.25;;;6.00;99.90;;;;;;5047545;28;20064;-65
2022/11/30 12:44:18;;;;;;;62.58;29.30;;;6.00;99.90;;;;;;5062711;28;20107;-65
2022/11/30 12:47:05;;;;;;;56.25;27.33;;;6.00;99.90;;;;;;5044962;28;20044;-65
2022/11/30 12:49:57;;;;;;;58.33;29.00;;;6.10;99.90;;;;;;5064971;28;20570;-64
2022/11/30 12:52:52;;;;;;;58.85;27.35;;;6.10;99.90;;;;;;5047755;28;20060;-65
2022/11/30 12:55:23;;;;;;;57.20;27.77;;;6.10;99.90;;;;;;5064693;28;20049;-65